Time;durP1;ratioP1;P1;durP2;ratioP2;P2;SDS_P1;SDS_P2;PMS_P1;PMS_P2;Temp;Humidity;BMP_temperature;BMP_pressure;BME280_temperature;BME280_humidity;BME280_pressure;Samples;Min_cycle;Max_cycle;Signal;HPM_P1;HPM_P2
2023/12/13 00:00:20;;;;;;;23.25;10.50;;;;;;;7.27;100.00;99386.00;6298962;28;20045;-75
2023/12/13 00:03:21;;;;;;;24.67;12.00;;;;;;;7.22;100.00;99368.09;6310152;28;20048;-71
2023/12/13 00:06:22;;;;;;;24.50;12.02;;;;;;;7.23;100.00;99356.78;6307572;28;20048;-76
2023/12/13 00:09:23;;;;;;;21.08;10.07;;;;;;;7.23;100.00;99350.78;6306808;28;20048;-74
2023/12/13 00:12:24;;;;;;;22.70;11.93;;;;;;;7.31;100.00;99352.91;6323972;28;20465;-75
2023/12/13 00:15:25;;;;;;;22.25;11.32;;;;;;;7.28;100.00;99356.53;6310984;28;20574;-76
2023/12/13 00:18:26;;;;;;;16.92;9.15;;;;;;;7.26;100.00;99358.38;6299143;28;20061;-75
2023/12/13 00:21:27;;;;;;;19.17;10.10;;;;;;;7.30;100.00;99354.66;6312924;28;20052;-75
2023/12/13 00:24:27;;;;;;;24.05;9.43;;;;;;;7.20;100.00;99340.56;6314812;28;20041;-75
2023/12/13 00:27:28;;;;;;;17.30;9.35;;;;;;;7.21;100.00;99335.28;6299094;28;20049;-75
2023/12/13 00:30:31;;;;;;;20.85;8.95;;;;;;;7.14;100.00;99331.38;6314838;28;20138;-75
2023/12/13 00:33:34;;;;;;;18.92;9.75;;;;;;;7.19;100.00;99339.72;6323823;28;20528;-75
2023/12/13 00:36:35;;;;;;;24.23;8.93;;;;;;;7.21;100.00;99345.66;6304133;28;20067;-71
2023/12/13 00:39:36;;;;;;;20.55;9.00;;;;;;;7.25;100.00;99338.56;6318210;28;20056;-75
2023/12/13 00:42:40;;;;;;;18.33;9.18;;;;;;;7.22;100.00;99338.72;6322025;28;20484;-75
2023/12/13 00:45:41;;;;;;;29.05;10.98;;;;;;;7.12;100.00;99333.22;6306772;28;20051;-75
2023/12/13 00:48:42;;;;;;;15.30;9.13;;;;;;;7.15;100.00;99324.44;6297531;28;20260;-75
2023/12/13 00:51:43;;;;;;;19.45;9.35;;;;;;;7.16;100.00;99332.13;6301773;28;20544;-73
2023/12/13 00:54:44;;;;;;;18.63;9.05;;;;;;;7.16;100.00;99334.72;6305983;28;20510;-72
2023/12/13 00:57:45;;;;;;;19.52;9.18;;;;;;;7.14;100.00;99331.38;6298642;28;20087;-72
2023/12/13 01:00:46;;;;;;;17.75;9.02;;;;;;;7.21;100.00;99337.88;6298726;28;20068;-72
2023/12/13 01:03:47;;;;;;;17.85;8.38;;;;;;;7.23;100.00;99327.41;6298528;28;20040;-72
2023/12/13 01:06:49;;;;;;;18.13;8.67;;;;;;;7.22;100.00;99334.34;6296939;28;20087;-75
2023/12/13 01:09:50;;;;;;;21.52;8.73;;;;;;;7.26;100.00;99322.03;6298251;28;20294;-75
2023/12/13 01:12:51;;;;;;;15.18;9.02;;;;;;;7.32;100.00;99326.88;6308026;28;20047;-76
2023/12/13 01:15:52;;;;;;;14.10;8.52;;;;;;;7.22;100.00;99310.16;6316966;28;20060;-76
2023/12/13 01:18:52;;;;;;;22.35;8.90;;;;;;;7.25;100.00;99308.22;6322027;28;20522;-74
2023/12/13 01:21:53;;;;;;;16.67;8.60;;;;;;;7.14;100.00;99291.63;6317392;28;20488;-74
2023/12/13 01:24:54;;;;;;;17.70;8.93;;;;;;;7.07;100.00;99285.97;6293991;28;20052;-77
2023/12/13 01:27:57;;;;;;;17.55;8.68;;;;;;;7.19;100.00;99287.84;6296948;28;20048;-74
2023/12/13 01:30:58;;;;;;;16.05;8.95;;;;;;;7.24;100.00;99266.81;6294625;28;20131;-77
2023/12/13 01:33:59;;;;;;;20.35;9.95;;;;;;;7.16;100.00;99251.69;6328345;27;20111;-74
2023/12/13 01:37:01;;;;;;;16.95;8.57;;;;;;;7.09;100.00;99262.53;6308141;28;20078;-74
2023/12/13 01:40:03;;;;;;;21.00;8.98;;;;;;;7.09;100.00;99246.97;6293770;28;20121;-74
2023/12/13 01:43:04;;;;;;;17.77;9.05;;;;;;;7.22;100.00;99247.91;6327225;27;20416;-77
2023/12/13 01:46:05;;;;;;;19.73;9.23;;;;;;;7.20;100.00;99235.00;6326887;27;20044;-74
2023/12/13 01:49:11;;;;;;;11.77;7.63;;;;;;;7.17;100.00;99226.59;6302631;28;20072;-75
2023/12/13 01:52:14;;;;;;;16.25;7.78;;;;;;;7.18;100.00;99228.25;6330159;27;20048;-75
2023/12/13 01:55:16;;;;;;;13.48;7.28;;;;;;;7.07;100.00;99221.13;6327251;27;20048;-77
2023/12/13 01:58:18;;;;;;;12.63;7.15;;;;;;;7.14;100.00;99218.97;6291620;28;20423;-77
2023/12/13 02:01:19;;;;;;;18.98;9.77;;;;;;;7.07;100.00;99200.38;6294151;28;20044;-77
2023/12/13 02:04:24;;;;;;;17.67;9.23;;;;;;;7.13;100.00;99188.78;6293235;28;20076;-74
2023/12/13 02:07:28;;;;;;;18.02;9.18;;;;;;;7.08;100.00;99186.44;6326831;27;20045;-74
2023/12/13 02:10:30;;;;;;;17.08;9.30;;;;;;;7.12;100.00;99174.97;6294688;28;20514;-74
2023/12/13 02:13:31;;;;;;;16.45;8.50;;;;;;;7.14;100.00;99165.31;6291993;28;20121;-74
2023/12/13 02:16:32;;;;;;;11.90;6.78;;;;;;;7.09;100.00;99158.78;6302284;28;20048;-77
2023/12/13 02:19:36;;;;;;;15.40;7.13;;;;;;;6.99;100.00;99146.34;6296272;28;20040;-77
2023/12/13 02:22:37;;;;;;;13.65;7.43;;;;;;;6.94;100.00;99130.25;6326262;27;20051;-77
2023/12/13 02:25:54;;;;;;;13.70;7.57;;;;;;;7.07;100.00;99132.91;6332001;27;20135;-74
2023/12/13 02:28:56;;;;;;;25.80;10.18;;;;;;;7.05;100.00;99116.63;6317397;28;20044;-77
2023/12/13 02:31:57;;;;;;;15.10;8.48;;;;;;;7.09;100.00;99112.09;6321007;28;20048;-74
2023/12/13 02:35:00;;;;;;;19.73;8.75;;;;;;;7.01;100.00;99108.19;6320942;28;20154;-74
2023/12/13 02:38:01;;;;;;;19.90;8.13;;;;;;;7.01;100.00;99099.56;6302917;28;20397;-74
2023/12/13 02:41:02;;;;;;;15.30;8.18;;;;;;;6.93;100.00;99097.44;6295768;28;20189;-74
2023/12/13 02:44:03;;;;;;;12.82;6.35;;;;;;;6.97;100.00;99083.38;6298494;28;20040;-74
2023/12/13 02:47:04;;;;;;;13.52;7.60;;;;;;;7.05;100.00;99069.94;6319161;28;20052;-77
2023/12/13 02:50:06;;;;;;;12.93;6.35;;;;;;;6.80;100.00;99073.22;6296730;28;20136;-78
2023/12/13 02:53:07;;;;;;;11.90;6.75;;;;;;;6.89;100.00;99064.03;6295125;28;20087;-78
2023/12/13 02:56:08;;;;;;;9.95;5.40;;;;;;;6.83;100.00;99063.44;6313637;28;20055;-75
2023/12/13 02:59:09;;;;;;;12.30;6.40;;;;;;;6.90;100.00;99052.72;6320646;28;20044;-74
2023/12/13 03:02:10;;;;;;;14.73;6.55;;;;;;;6.97;100.00;99044.47;6320527;28;20134;-77
2023/12/13 03:05:11;;;;;;;11.98;5.63;;;;;;;6.96;100.00;99050.59;6307325;28;20057;-77
2023/12/13 03:08:15;;;;;;;10.10;5.38;;;;;;;6.84;100.00;99039.22;6295168;28;20515;-77
2023/12/13 03:11:16;;;;;;;10.93;5.93;;;;;;;6.89;100.00;99030.31;6295067;28;20527;-78
2023/12/13 03:14:20;;;;;;;11.30;5.90;;;;;;;6.84;100.00;99018.47;6295863;28;20059;-78
2023/12/13 03:17:21;;;;;;;14.50;6.15;;;;;;;6.80;100.00;99022.19;6301266;28;20090;-74
2023/12/13 03:20:22;;;;;;;9.77;5.25;;;;;;;6.84;100.00;99021.06;6300196;28;20503;-78
2023/12/13 03:23:22;;;;;;;13.70;6.68;;;;;;;6.81;100.00;99016.03;6299924;28;20056;-74
2023/12/13 03:26:23;;;;;;;8.63;5.43;;;;;;;6.82;100.00;99014.31;6300016;28;20048;-74
2023/12/13 03:29:24;;;;;;;12.20;6.30;;;;;;;6.84;100.00;99009.84;6306291;28;20047;-77
2023/12/13 03:32:25;;;;;;;12.48;5.47;;;;;;;6.98;100.00;99016.75;6325994;28;20097;-74
2023/12/13 03:35:26;;;;;;;13.32;6.65;;;;;;;6.95;100.00;99009.19;6324937;28;20510;-74
2023/12/13 03:38:27;;;;;;;14.65;6.03;;;;;;;6.92;100.00;99015.41;6324798;28;20048;-74
2023/12/13 03:41:28;;;;;;;14.25;6.60;;;;;;;7.03;100.00;99001.75;6324917;28;20048;-77
2023/12/13 03:44:29;;;;;;;14.18;7.28;;;;;;;6.92;100.00;99002.44;6324524;28;20044;-77
2023/12/13 03:47:30;;;;;;;14.77;6.78;;;;;;;7.09;100.00;99005.72;6325862;28;20084;-77
2023/12/13 03:50:30;;;;;;;15.15;6.50;;;;;;;6.97;100.00;98992.59;6324294;28;20044;-74
2023/12/13 03:53:32;;;;;;;15.68;6.95;;;;;;;6.95;100.00;98993.63;6325752;28;20059;-78
2023/12/13 03:56:33;;;;;;;12.07;6.18;;;;;;;6.92;100.00;98989.47;6318783;28;20077;-78
2023/12/13 03:59:34;;;;;;;11.55;6.00;;;;;;;6.93;100.00;98991.13;6322919;28;20048;-74
2023/12/13 04:02:35;;;;;;;12.57;6.40;;;;;;;6.92;100.00;98994.66;6324204;28;20101;-77
2023/12/13 04:05:36;;;;;;;10.02;5.18;;;;;;;6.99;100.00;98987.31;6324327;28;20051;-74
2023/12/13 04:08:39;;;;;;;11.50;6.35;;;;;;;6.99;100.00;98979.53;6325395;28;20488;-74
2023/12/13 04:11:39;;;;;;;12.98;6.80;;;;;;;6.98;100.00;98975.25;6324097;28;20491;-74
2023/12/13 04:14:40;;;;;;;9.93;6.15;;;;;;;6.92;100.00;98968.72;6322884;28;20086;-77
2023/12/13 04:17:41;;;;;;;13.60;6.53;;;;;;;6.90;100.00;98965.41;6298514;28;20082;-78
2023/12/13 04:20:42;;;;;;;15.25;6.75;;;;;;;6.72;100.00;98964.78;6300817;28;20056;-77
2023/12/13 04:23:43;;;;;;;14.57;7.45;;;;;;;6.82;100.00;98968.47;6298423;28;20389;-74
2023/12/13 04:26:44;;;;;;;13.82;6.18;;;;;;;6.76;100.00;98963.66;6297912;28;20052;-74
2023/12/13 04:29:45;;;;;;;14.63;7.03;;;;;;;6.68;100.00;98965.91;6311457;28;20087;-74
2023/12/13 04:32:46;;;;;;;13.93;6.93;;;;;;;6.77;100.00;98964.47;6323724;28;20334;-74
2023/12/13 04:35:47;;;;;;;12.57;6.97;;;;;;;6.76;100.00;98971.44;6324612;28;20095;-77
2023/12/13 04:38:51;;;;;;;15.35;6.40;;;;;;;6.69;100.00;98969.31;6323215;28;20054;-77
2023/12/13 04:41:52;;;;;;;23.83;7.90;;;;;;;6.79;100.00;98952.25;6323323;28;20051;-75
2023/12/13 04:44:53;;;;;;;14.38;7.05;;;;;;;6.68;100.00;98928.78;6323057;28;20052;-77
2023/12/13 04:47:54;;;;;;;13.50;6.60;;;;;;;6.61;100.00;98930.91;6323391;28;20051;-77
2023/12/13 04:50:55;;;;;;;13.82;6.65;;;;;;;6.45;100.00;98929.28;6311838;28;20424;-74
2023/12/13 04:53:57;;;;;;;20.38;6.47;;;;;;;6.45;100.00;98931.88;6297647;28;20080;-74
2023/12/13 04:56:58;;;;;;;12.18;6.63;;;;;;;6.51;100.00;98924.66;6298845;28;20048;-74
2023/12/13 04:59:59;;;;;;;16.23;7.53;;;;;;;6.64;100.00;98918.59;6297850;28;20127;-74
2023/12/13 05:03:00;;;;;;;13.38;6.35;;;;;;;6.59;100.00;98899.91;6297630;28;20048;-74
2023/12/13 05:06:01;;;;;;;10.15;6.22;;;;;;;6.67;100.00;98917.56;6302442;28;20062;-74
2023/12/13 05:09:04;;;;;;;14.52;6.57;;;;;;;6.90;100.00;98918.72;6298595;28;20056;-74
2023/12/13 05:12:07;;;;;;;12.23;6.53;;;;;;;6.93;100.00;98921.09;6308057;28;20093;-78
2023/12/13 05:15:08;;;;;;;12.10;6.80;;;;;;;6.89;100.00;98900.66;6306829;28;20407;-75
2023/12/13 05:18:11;;;;;;;9.35;5.30;;;;;;;6.86;100.00;98892.16;6307371;28;20227;-74
2023/12/13 05:21:11;;;;;;;11.90;6.22;;;;;;;6.98;100.00;98893.13;6305035;28;20048;-74
2023/12/13 05:24:12;;;;;;;9.93;5.63;;;;;;;6.86;100.00;98881.78;6311437;28;20704;-77
2023/12/13 05:27:13;;;;;;;11.60;6.18;;;;;;;6.88;100.00;98886.00;6310432;28;20048;-77
2023/12/13 05:30:14;;;;;;;12.90;6.97;;;;;;;6.93;100.00;98895.16;6309148;28;20549;-77
2023/12/13 05:33:15;;;;;;;13.73;7.50;;;;;;;6.93;100.00;98871.00;6310685;28;20491;-74
2023/12/13 05:36:17;;;;;;;10.35;6.75;;;;;;;6.82;100.00;98869.94;6313928;28;20062;-78
2023/12/13 05:39:18;;;;;;;12.05;5.55;;;;;;;6.72;100.00;98868.88;6322459;28;20058;-74
2023/12/13 05:42:19;;;;;;;17.00;7.15;;;;;;;6.65;100.00;98863.25;6305665;28;20048;-74
2023/12/13 05:45:20;;;;;;;15.90;6.88;;;;;;;6.73;100.00;98872.28;6301339;28;20052;-77
2023/12/13 05:48:21;;;;;;;12.13;5.93;;;;;;;6.65;100.00;98863.25;6320256;28;20127;-77
2023/12/13 05:51:22;;;;;;;14.70;6.55;;;;;;;6.64;100.00;98863.34;6311939;28;20056;-77
2023/12/13 05:54:23;;;;;;;10.10;6.38;;;;;;;6.77;100.00;98858.19;6297501;28;20067;-77
2023/12/13 05:57:24;;;;;;;11.82;6.80;;;;;;;6.69;100.00;98850.91;6298678;28;20048;-77
2023/12/13 06:00:25;;;;;;;14.15;7.40;;;;;;;6.61;100.00;98835.84;6301552;28;20507;-73
2023/12/13 06:03:26;;;;;;;13.35;7.40;;;;;;;6.80;100.00;98826.91;6321270;28;20094;-74
2023/12/13 06:06:27;;;;;;;12.50;7.38;;;;;;;6.82;100.00;98832.81;6315293;28;20060;-74
2023/12/13 06:09:29;;;;;;;16.25;6.93;;;;;;;6.80;100.00;98829.50;6296124;28;20056;-74
2023/12/13 06:12:29;;;;;;;17.73;6.82;;;;;;;6.93;100.00;98821.72;6295778;28;20098;-74
2023/12/13 06:15:32;;;;;;;13.75;6.85;;;;;;;6.91;100.00;98818.41;6306757;28;20052;-74
2023/12/13 06:18:33;;;;;;;10.73;5.80;;;;;;;7.01;100.00;98820.28;6318735;28;20492;-74
2023/12/13 06:21:34;;;;;;;14.38;6.72;;;;;;;6.99;100.00;98827.34;6318101;28;20048;-77
2023/12/13 06:24:35;;;;;;;9.55;5.35;;;;;;;7.04;100.00;98814.91;6309764;28;20480;-74
2023/12/13 06:27:36;;;;;;;10.65;6.38;;;;;;;7.15;100.00;98811.59;6319073;28;20048;-74
2023/12/13 06:30:39;;;;;;;10.50;5.65;;;;;;;7.25;100.00;98811.81;6313615;28;20048;-77
2023/12/13 06:33:43;;;;;;;12.20;6.30;;;;;;;7.33;100.00;98798.31;6352131;27;20048;-77
2023/12/13 06:36:44;;;;;;;11.38;6.38;;;;;;;7.38;100.00;98786.69;6321799;28;20101;-77
2023/12/13 06:39:45;;;;;;;20.27;7.53;;;;;;;7.32;100.00;98797.50;6320772;28;20054;-77
2023/12/13 06:42:46;;;;;;;13.18;7.07;;;;;;;7.32;100.00;98788.88;6320647;28;20048;-77
2023/12/13 06:45:47;;;;;;;10.80;6.05;;;;;;;7.26;100.00;98792.72;6320348;28;20519;-74
2023/12/13 06:48:48;;;;;;;12.75;7.35;;;;;;;7.26;100.00;98779.75;6320158;28;20075;-78
2023/12/13 06:51:51;;;;;;;12.50;7.07;;;;;;;7.37;100.00;98777.28;6320089;28;20083;-74
2023/12/13 06:54:52;;;;;;;9.23;5.30;;;;;;;7.39;100.00;98777.13;6320357;28;20048;-77
2023/12/13 06:57:53;;;;;;;11.00;6.10;;;;;;;7.37;100.00;98771.22;6320170;28;20052;-77
2023/12/13 07:00:56;;;;;;;11.52;6.30;;;;;;;7.47;100.00;98765.31;6321329;28;20048;-78
2023/12/13 07:03:58;;;;;;;10.25;5.57;;;;;;;7.47;100.00;98760.13;6321437;28;20056;-77
2023/12/13 07:06:59;;;;;;;9.43;5.43;;;;;;;7.44;100.00;98762.09;6320302;28;20102;-78
2023/12/13 07:10:00;;;;;;;11.48;5.70;;;;;;;7.44;100.00;98767.28;6321432;28;20048;-77
2023/12/13 07:13:03;;;;;;;7.50;4.93;;;;;;;7.44;100.00;98757.72;6319925;28;20152;-77
2023/12/13 07:16:05;;;;;;;11.88;6.57;;;;;;;7.53;100.00;98758.03;6319899;28;20051;-77
2023/12/13 07:19:06;;;;;;;9.50;5.78;;;;;;;7.52;100.00;98753.78;6321113;28;20052;-77
2023/12/13 07:22:07;;;;;;;10.27;5.88;;;;;;;7.50;100.00;98750.47;6321238;28;20055;-74
2023/12/13 07:25:08;;;;;;;9.00;5.57;;;;;;;7.61;100.00;98743.56;6321076;28;20052;-74
2023/12/13 07:28:10;;;;;;;13.35;6.30;;;;;;;7.57;100.00;98744.72;6321122;28;20561;-78
2023/12/13 07:31:11;;;;;;;18.13;8.65;;;;;;;7.51;100.00;98744.34;6320049;28;20403;-74
2023/12/13 07:34:12;;;;;;;34.63;22.60;;;;;;;7.61;100.00;98743.56;6319922;28;20454;-74
2023/12/13 07:37:13;;;;;;;17.73;11.38;;;;;;;7.67;100.00;98744.94;6319684;28;20048;-75
2023/12/13 07:40:14;;;;;;;8.70;5.25;;;;;;;7.56;100.00;98739.66;6320009;28;20087;-74
2023/12/13 07:43:16;;;;;;;8.65;5.38;;;;;;;7.56;100.00;98732.69;6319834;28;20381;-74
2023/12/13 07:46:18;;;;;;;12.23;5.20;;;;;;;7.63;100.00;98730.50;6320985;28;20403;-78
2023/12/13 07:49:19;;;;;;;9.50;5.35;;;;;;;7.67;100.00;98719.78;6321042;28;20106;-74
2023/12/13 07:52:20;;;;;;;11.13;6.30;;;;;;;7.66;100.00;98730.31;6319286;28;20052;-74
2023/12/13 07:55:21;;;;;;;59.72;29.95;;;;;;;7.86;100.00;98729.72;6320743;28;20151;-78
2023/12/13 07:58:21;;;;;;;35.88;17.88;;;;;;;7.77;100.00;98721.75;6319454;28;20044;-77
2023/12/13 08:01:24;;;;;;;16.70;9.95;;;;;;;7.85;100.00;98719.44;6320583;28;20433;-78
2023/12/13 08:04:25;;;;;;;12.23;6.95;;;;;;;7.89;100.00;98720.88;6324175;28;20048;-78
2023/12/13 08:07:26;;;;;;;18.70;8.35;;;;;;;7.96;100.00;98711.69;6325384;28;20416;-74
2023/12/13 08:10:27;;;;;;;14.00;8.20;;;;;;;8.07;100.00;98713.53;6325253;28;20056;-74
2023/12/13 08:13:28;;;;;;;11.13;6.72;;;;;;;8.00;100.00;98718.34;6325249;28;20052;-74
2023/12/13 08:16:29;;;;;;;10.63;6.07;;;;;;;8.07;100.00;98711.78;6324878;28;20044;-74
2023/12/13 08:19:30;;;;;;;10.90;7.22;;;;;;;8.04;100.00;98701.59;6323722;28;20098;-77
2023/12/13 08:22:31;;;;;;;14.10;8.00;;;;;;;8.09;100.00;98709.03;6323861;28;20044;-74
2023/12/13 08:25:32;;;;;;;26.38;11.90;;;;;;;8.16;100.00;98704.25;6323533;28;20048;-77
2023/12/13 08:28:32;;;;;;;19.58;10.23;;;;;;;8.15;100.00;98706.00;6323603;28;20048;-74
2023/12/13 08:31:35;;;;;;;14.32;7.38;;;;;;;8.24;100.00;98702.75;6323400;28;20075;-77
2023/12/13 08:34:36;;;;;;;13.55;6.07;;;;;;;8.22;100.00;98719.41;6322857;28;20058;-73
2023/12/13 08:37:37;;;;;;;16.77;5.72;;;;;;;8.32;100.00;98714.34;6324342;28;20055;-74
2023/12/13 08:40:39;;;;;;;9.90;5.93;;;;;;;8.35;100.00;98706.34;6324409;28;20066;-77
2023/12/13 08:43:40;;;;;;;9.82;5.60;;;;;;;8.37;100.00;98700.06;6324690;28;20127;-74
2023/12/13 08:46:43;;;;;;;15.70;7.15;;;;;;;8.43;100.00;98693.63;6323634;28;20052;-74
2023/12/13 08:49:45;;;;;;;11.23;6.03;;;;;;;8.54;100.00;98693.66;6322961;28;20494;-74
2023/12/13 08:52:46;;;;;;;8.60;5.75;;;;;;;8.59;100.00;98686.38;6322121;28;20048;-74
2023/12/13 08:55:47;;;;;;;8.30;4.95;;;;;;;8.62;100.00;98683.53;6323045;28;20044;-73
2023/12/13 08:58:48;;;;;;;7.90;4.47;;;;;;;8.62;100.00;98680.09;6324132;28;20052;-74
2023/12/13 09:01:49;;;;;;;7.63;4.28;;;;;;;8.65;100.00;98665.09;6323078;28;20055;-73
2023/12/13 09:04:50;;;;;;;11.48;4.25;;;;;;;8.73;100.00;98667.13;6321160;28;20044;-73
2023/12/13 09:07:50;;;;;;;10.52;4.00;;;;;;;8.80;100.00;98664.88;6324091;28;20052;-76
2023/12/13 09:10:51;;;;;;;8.13;4.10;;;;;;;8.79;100.00;98663.22;6322808;28;20051;-73
2023/12/13 09:13:52;;;;;;;6.55;4.55;;;;;;;8.73;100.00;98654.13;6321954;28;20052;-73
2023/12/13 09:16:53;;;;;;;4.70;3.13;;;;;;;8.78;100.00;98649.41;6322179;28;20059;-73
2023/12/13 09:19:54;;;;;;;9.10;4.82;;;;;;;8.74;100.00;98637.56;6323351;28;20047;-73
2023/12/13 09:22:57;;;;;;;14.88;4.60;;;;;;;8.78;100.00;98649.41;6323331;28;20135;-73
2023/12/13 09:25:59;;;;;;;5.95;4.00;;;;;;;8.88;100.00;98647.75;6323227;28;20408;-73
2023/12/13 09:29:02;;;;;;;6.30;3.40;;;;;;;8.84;100.00;98635.94;6322076;28;20080;-76
2023/12/13 09:32:06;;;;;;;6.25;4.18;;;;;;;8.78;100.00;98640.78;6323087;28;21097;-73
2023/12/13 09:35:07;;;;;;;4.95;3.50;;;;;;;8.92;100.00;98644.94;6321733;28;20479;-72
2023/12/13 09:38:08;;;;;;;7.72;5.50;;;;;;;8.92;100.00;98643.16;6321737;28;20051;-73
2023/12/13 09:41:09;;;;;;;5.25;3.53;;;;;;;8.86;100.00;98641.84;6321972;28;20059;-76
2023/12/13 09:44:11;;;;;;;5.45;3.80;;;;;;;8.83;100.00;98644.69;6322913;28;20067;-73
2023/12/13 09:47:15;;;;;;;4.95;3.67;;;;;;;9.01;100.00;98639.00;6321491;28;20130;-76
2023/12/13 09:50:18;;;;;;;10.10;5.68;;;;;;;8.95;100.00;98629.06;6322906;28;20056;-73
2023/12/13 09:53:22;;;;;;;10.45;5.93;;;;;;;8.96;100.00;98620.34;6321173;28;20059;-76
2023/12/13 09:56:23;;;;;;;9.18;5.22;;;;;;;9.03;100.00;98605.91;6322664;28;20048;-73
2023/12/13 09:59:24;;;;;;;8.15;4.55;;;;;;;9.06;100.00;98614.28;6321089;28;20055;-76
2023/12/13 10:02:26;;;;;;;7.78;4.25;;;;;;;9.21;100.00;98609.66;6321438;28;20047;-76
2023/12/13 10:05:31;;;;;;;6.93;4.20;;;;;;;9.10;100.00;98601.88;6320958;28;20205;-73
2023/12/13 10:08:36;;;;;;;9.35;5.75;;;;;;;9.16;100.00;98600.56;6322202;28;20048;-76
2023/12/13 10:11:37;;;;;;;9.32;5.22;;;;;;;9.27;100.00;98590.97;6322159;28;20185;-76
2023/12/13 10:14:38;;;;;;;7.60;4.47;;;;;;;9.22;100.00;98580.06;6321145;28;20051;-76
2023/12/13 10:17:42;;;;;;;9.77;4.90;;;;;;;9.10;100.00;98578.47;6321849;28;20101;-73
2023/12/13 10:20:45;;;;;;;9.40;5.78;;;;;;;9.24;100.00;98582.56;6320987;28;20075;-76
2023/12/13 10:23:46;;;;;;;9.57;5.85;;;;;;;9.21;100.00;98588.84;6320337;28;20086;-73
2023/12/13 10:26:47;;;;;;;10.43;6.00;;;;;;;9.07;100.00;98579.50;6320597;28;20125;-73
2023/12/13 10:29:49;;;;;;;11.80;6.28;;;;;;;9.22;100.00;98580.06;6321842;28;20184;-76
2023/12/13 10:32:50;;;;;;;7.60;4.93;;;;;;;9.28;100.00;98584.78;6321720;28;20729;-76
2023/12/13 10:35:53;;;;;;;7.97;5.55;;;;;;;9.36;100.00;98584.19;6321754;28;20108;-73
2023/12/13 10:38:55;;;;;;;8.15;5.38;;;;;;;9.33;100.00;98581.00;6320476;28;20044;-77
2023/12/13 10:41:57;;;;;;;7.72;5.18;;;;;;;9.41;100.00;98565.59;6320493;28;20411;-73
2023/12/13 10:45:00;;;;;;;7.68;4.90;;;;;;;9.47;100.00;98567.72;6320568;28;20044;-73
2023/12/13 10:48:04;;;;;;;7.53;4.35;;;;;;;9.43;100.00;98576.72;6320535;28;20134;-73
2023/12/13 10:51:06;;;;;;;6.80;4.35;;;;;;;9.49;100.00;98568.41;6321340;28;20052;-73
2023/12/13 10:54:07;;;;;;;;;;;;;;;9.48;100.00;98575.41;6320958;28;20044;-73
2023/12/13 10:57:12;;;;;;;5.40;3.50;;;;;;;9.51;100.00;98568.31;6320118;28;20299;-73
2023/12/13 11:00:14;;;;;;;6.00;4.00;;;;;;;9.43;100.00;98559.34;6321342;28;20044;-77
2023/12/13 11:03:22;;;;;;;4.75;3.50;;;;;;;9.53;100.00;98566.41;6320285;28;20080;-76
2023/12/13 11:06:22;;;;;;;8.05;4.95;;;;;;;9.47;100.00;98567.72;6321512;28;20047;-73
2023/12/13 11:09:24;;;;;;;8.93;5.38;;;;;;;9.53;100.00;98567.22;6320109;28;20117;-73
2023/12/13 11:12:28;;;;;;;7.43;5.05;;;;;;;9.54;100.00;98565.47;6319888;28;20083;-77
2023/12/13 11:15:28;;;;;;;7.47;4.53;;;;;;;9.41;100.00;98565.59;6321346;28;20063;-74
2023/12/13 11:18:30;;;;;;;7.68;4.15;;;;;;;9.42;100.00;98560.28;6321010;28;20052;-73
2023/12/13 11:21:33;;;;;;;4.07;3.17;;;;;;;9.36;100.00;98567.75;6321318;28;20047;-73
2023/12/13 11:24:36;;;;;;;11.48;4.90;;;;;;;9.39;100.00;98557.94;6321071;28;20048;-77
2023/12/13 11:27:47;;;;;;;5.93;4.32;;;;;;;9.40;100.00;98556.16;6321401;28;20127;-77
2023/12/13 11:30:47;;;;;;;5.13;3.53;;;;;;;9.34;100.00;98559.25;6320988;28;20142;-77
2023/12/13 11:33:57;;;;;;;6.97;4.03;;;;;;;9.42;100.00;98555.06;6320061;28;20143;-76
2023/12/13 11:37:06;;;;;;;6.63;4.53;;;;;;;9.32;100.00;98561.97;6323553;28;20458;-73
2023/12/13 11:40:09;;;;;;;5.32;3.65;;;;;;;9.27;100.00;98561.50;6324536;28;20469;-77
2023/12/13 11:43:11;;;;;;;7.72;4.18;;;;;;;9.27;100.00;98559.72;6324922;28;20086;-76
2023/12/13 11:46:13;;;;;;;7.38;4.90;;;;;;;9.31;100.00;98555.13;6324938;28;20048;-73
2023/12/13 11:49:13;;;;;;;8.50;4.82;;;;;;;9.25;100.00;98560.81;6325628;28;20052;-73
2023/12/13 11:52:16;;;;;;;10.93;5.93;;;;;;;9.37;100.00;98556.38;6325595;28;20055;-76
2023/12/13 11:55:19;;;;;;;9.95;5.68;;;;;;;9.18;100.00;98552.66;6325837;28;20044;-75
2023/12/13 11:58:20;;;;;;;10.70;6.55;;;;;;;9.26;100.00;98541.63;6325547;28;20471;-78
2023/12/13 12:01:21;;;;;;;13.60;7.07;;;;;;;9.14;100.00;98533.03;6325541;28;20071;-77
2023/12/13 12:04:23;;;;;;;9.80;6.25;;;;;;;9.17;100.00;98522.38;6324356;28;20044;-78
2023/12/13 12:07:24;;;;;;;13.50;6.30;;;;;;;9.28;100.00;98519.72;6325741;28;20508;-78
2023/12/13 12:10:26;;;;;;;11.33;6.93;;;;;;;9.31;100.00;98517.81;6325484;28;20056;-75
2023/12/13 12:13:27;;;;;;;16.10;6.78;;;;;;;9.30;100.00;98497.97;6324030;28;20415;-78
2023/12/13 12:16:28;;;;;;;12.60;7.60;;;;;;;9.42;100.00;98503.00;6323909;28;20105;-74
2023/12/13 12:19:32;;;;;;;14.85;7.03;;;;;;;9.36;100.00;98493.09;6323879;28;20488;-78
2023/12/13 12:22:37;;;;;;;12.73;7.60;;;;;;;9.37;100.00;98494.75;6323926;28;20047;-74
2023/12/13 12:25:42;;;;;;;9.68;5.25;;;;;;;9.37;100.00;98486.94;6323675;28;20066;-75
2023/12/13 12:28:43;;;;;;;8.77;4.88;;;;;;;9.39;100.00;98476.38;6323688;28;20048;-74
2023/12/13 12:31:44;;;;;;;11.30;7.30;;;;;;;9.41;100.00;98483.16;6323475;28;20093;-74
2023/12/13 12:34:48;;;;;;;12.35;7.13;;;;;;;9.46;100.00;98480.16;6324562;28;20080;-74
2023/12/13 12:37:49;;;;;;;10.48;5.45;;;;;;;9.45;100.00;98473.28;6323419;28;20052;-74
2023/12/13 12:40:50;;;;;;;9.40;5.03;;;;;;;9.46;100.00;98465.34;6323566;28;20052;-78
2023/12/13 12:43:51;;;;;;;52.03;18.42;;;;;;;9.48;100.00;98465.25;6323263;28;20090;-78
2023/12/13 12:46:54;;;;;;;55.53;20.30;;;;;;;9.43;100.00;98468.22;6323537;28;20052;-78
2023/12/13 12:49:58;;;;;;;8.95;4.50;;;;;;;9.42;100.00;98463.97;6323799;28;20052;-74
2023/12/13 12:52:59;;;;;;;9.57;5.50;;;;;;;9.43;100.00;98460.41;6322758;28;20142;-74
2023/12/13 12:56:00;;;;;;;8.18;4.53;;;;;;;9.40;100.00;98457.22;6323858;28;20055;-74
2023/12/13 12:59:01;;;;;;;9.93;6.30;;;;;;;9.38;100.00;98462.56;6323006;28;20074;-77
2023/12/13 13:02:03;;;;;;;20.95;10.55;;;;;;;9.45;100.00;98466.31;6322668;28;20564;-74
2023/12/13 13:05:07;;;;;;;12.57;6.72;;;;;;;9.34;100.00;98462.94;6323904;28;20044;-77
2023/12/13 13:08:08;;;;;;;8.77;5.50;;;;;;;9.43;100.00;98481.25;6323848;28;20048;-74
2023/12/13 13:11:09;;;;;;;10.57;5.47;;;;;;;9.38;100.00;98474.75;6322504;28;20138;-74
2023/12/13 13:14:10;;;;;;;8.18;5.00;;;;;;;9.36;100.00;98472.25;6323543;28;20465;-74
2023/12/13 13:17:11;;;;;;;10.05;5.70;;;;;;;9.37;100.00;98481.75;6323583;28;20048;-74
2023/12/13 13:20:12;;;;;;;12.20;7.07;;;;;;;9.35;100.00;98478.44;6322446;28;20044;-74
2023/12/13 13:23:13;;;;;;;28.35;11.90;;;;;;;9.27;100.00;98476.44;6323373;28;20131;-73
2023/12/13 13:26:14;;;;;;;17.98;9.60;;;;;;;9.21;100.00;98470.91;6322469;28;20044;-77
2023/12/13 13:29:15;;;;;;;17.63;9.13;;;;;;;9.20;100.00;98475.28;6322497;28;20044;-77
2023/12/13 13:32:15;;;;;;;14.45;7.90;;;;;;;9.15;100.00;98479.22;6323136;28;20059;-74
2023/12/13 13:35:16;;;;;;;11.13;7.10;;;;;;;9.12;100.00;98479.44;6322025;28;20136;-77
2023/12/13 13:38:20;;;;;;;11.52;6.70;;;;;;;9.11;100.00;98476.03;6322053;28;20052;-77
2023/12/13 13:41:21;;;;;;;8.30;5.63;;;;;;;9.10;100.00;98473.53;6323159;28;20085;-75
2023/12/13 13:44:22;;;;;;;11.43;7.28;;;;;;;9.08;100.00;98479.72;6321697;28;20051;-77
2023/12/13 13:47:25;;;;;;;11.63;6.85;;;;;;;8.98;100.00;98477.97;6323168;28;20052;-74
2023/12/13 13:50:27;;;;;;;16.08;8.43;;;;;;;9.03;100.00;98484.44;6321320;28;20048;-74
2023/12/13 13:53:27;;;;;;;16.10;9.35;;;;;;;9.01;100.00;98490.72;6322772;28;20044;-74
2023/12/13 13:56:28;;;;;;;8.77;5.63;;;;;;;8.95;100.00;98491.19;6321377;28;20135;-77
2023/12/13 13:59:30;;;;;;;11.30;5.93;;;;;;;8.86;100.00;98505.75;6321826;28;20059;-77
2023/12/13 14:02:33;;;;;;;8.45;4.95;;;;;;;8.63;100.00;98503.19;6322545;28;20115;-74
2023/12/13 14:05:35;;;;;;;5.32;3.72;;;;;;;8.52;100.00;98507.56;6321152;28;20109;-77